Time;durP1;ratioP1;P1;durP2;ratioP2;P2;SDS_P1;SDS_P2;PMS_P1;PMS_P2;Temp;Humidity;BMP_temperature;BMP_pressure;BME280_temperature;BME280_humidity;BME280_pressure;Samples;Min_cycle;Max_cycle;Signal;HPM_P1;HPM_P2
2022/02/02 00:02:27;;;;;;;39.95;5.13;;;;;;;6.87;91.38;101223.13;5025430;28;20032;-69
2022/02/02 00:05:01;;;;;;;58.17;5.88;;;;;;;6.83;91.59;101217.41;5041691;28;20048;-70
2022/02/02 00:07:34;;;;;;;45.05;5.63;;;;;;;6.71;91.86;101226.94;5035248;28;20036;-70
2022/02/02 00:10:15;;;;;;;44.72;5.97;;;;;;;6.75;91.97;101218.00;5043313;28;20111;-68
2022/02/02 00:12:45;;;;;;;45.92;5.20;;;;;;;6.75;91.74;101232.66;5020952;28;20407;-68
2022/02/02 00:15:39;;;;;;;40.97;4.72;;;;;;;6.68;91.96;101222.00;5037368;28;20037;-69
2022/02/02 00:21:05;;;;;;;46.22;5.60;;;;;;;6.66;92.24;101230.81;5046217;28;20043;-70
2022/02/02 00:23:31;;;;;;;39.33;4.82;;;;;;;6.61;91.93;101244.88;5039732;28;20048;-69
2022/02/02 00:26:06;;;;;;;49.78;5.15;;;;;;;6.62;91.76;101225.88;5038495;28;20048;-69
2022/02/02 00:28:36;;;;;;;31.45;4.63;;;;;;;6.59;91.72;101226.13;5023253;28;20048;-69
2022/02/02 00:31:06;;;;;;;48.67;6.68;;;;;;;6.57;92.01;101237.50;5006551;28;20564;-69
2022/02/02 00:33:39;;;;;;;39.85;5.50;;;;;;;6.54;92.06;101235.16;5019359;28;20112;-69
2022/02/02 00:36:19;;;;;;;48.72;5.65;;;;;;;6.56;91.45;101234.09;5022135;28;20086;-69
2022/02/02 00:38:45;;;;;;;81.75;6.90;;;;;;;6.61;90.97;101244.03;5036846;28;20052;-70
2022/02/02 00:41:11;;;;;;;55.90;6.63;;;;;;;6.58;91.51;101242.53;5022644;28;20037;-69
2022/02/02 00:43:40;;;;;;;50.03;6.30;;;;;;;6.53;91.10;101238.66;5039110;28;20491;-69
2022/02/02 00:46:06;;;;;;;42.30;6.38;;;;;;;6.58;91.06;101232.22;5036028;28;20037;-69
2022/02/02 00:48:33;;;;;;;56.92;5.80;;;;;;;6.60;90.89;101229.53;5026542;28;20037;-69
2022/02/02 00:50:59;;;;;;;48.17;5.22;;;;;;;6.49;90.85;101222.63;5044993;28;20036;-68
2022/02/02 00:53:25;;;;;;;49.35;6.38;;;;;;;6.47;91.09;101234.81;5043641;23;20051;-67
2022/02/02 00:55:52;;;;;;;51.88;6.25;;;;;;;6.50;90.92;101239.72;5058418;28;20037;-67
2022/02/02 00:58:18;;;;;;;50.70;6.68;;;;;;;6.40;91.49;101246.50;5059883;28;20021;-67
2022/02/02 01:00:44;;;;;;;53.55;7.53;;;;;;;6.36;91.14;101240.78;5063444;28;20033;-67
2022/02/02 01:03:10;;;;;;;52.75;5.13;;;;;;;6.36;91.24;101245.13;5052662;28;20028;-67
2022/02/02 01:05:35;;;;;;;48.35;6.78;;;;;;;6.33;91.05;101245.34;5047763;28;20040;-67
2022/02/02 01:10:56;;;;;;;52.40;7.47;;;;;;;6.55;90.67;101249.66;5063098;28;20486;-67
2022/02/02 01:16:44;;;;;;;62.65;7.18;;;;;;;6.36;91.60;101253.66;5043964;28;20101;-67
2022/02/02 01:29:32;;;;;;;45.90;6.93;;;;;;;6.51;91.47;101254.25;5062207;28;20034;-67
2022/02/02 01:31:58;;;;;;;40.92;5.28;;;;;;;6.52;91.27;101248.16;5061602;28;20036;-67
2022/02/02 01:34:24;;;;;;;47.75;5.93;;;;;;;6.57;91.22;101245.22;5062361;28;20028;-67
2022/02/02 01:36:49;;;;;;;46.10;6.20;;;;;;;6.50;91.57;101250.03;5040109;28;20534;-68
2022/02/02 01:39:17;;;;;;;47.80;5.10;;;;;;;6.52;91.08;101267.97;5056995;28;20509;-68
2022/02/02 01:41:44;;;;;;;40.97;7.15;;;;;;;6.52;91.01;101271.34;5064617;28;20036;-67
2022/02/02 01:44:23;;;;;;;56.03;6.40;;;;;;;6.59;90.82;101263.94;5040765;28;20127;-68
2022/02/02 01:46:50;;;;;;;40.90;5.65;;;;;;;6.61;90.65;101268.06;5024522;28;20389;-67
2022/02/02 01:57:38;;;;;;;43.75;8.73;;;;;;;6.72;89.65;101277.53;5063442;28;20446;-67
2022/02/02 01:59:59;;;;;;;43.50;5.88;;;;;;;6.74;89.72;101292.88;5044314;28;20564;-67
2022/02/02 02:02:25;;;;;;;49.60;5.50;;;;;;;6.74;89.52;101290.31;5063250;28;20040;-67
2022/02/02 02:04:51;;;;;;;40.60;5.22;;;;;;;6.80;89.57;101289.84;5064977;28;20375;-67
2022/02/02 02:07:17;;;;;;;55.63;7.07;;;;;;;6.74;89.96;101287.72;5061293;28;20460;-67
2022/02/02 02:09:43;;;;;;;41.45;5.95;;;;;;;6.69;89.62;101280.34;5062935;28;20036;-67
2022/02/02 02:12:10;;;;;;;54.55;5.32;;;;;;;6.76;89.99;101285.84;5028943;28;20032;-67
2022/02/02 02:17:05;;;;;;;30.90;5.82;;;;;;;6.81;89.69;101284.53;5060041;28;20070;-67
2022/02/02 02:19:31;;;;;;;41.55;6.40;;;;;;;6.89;89.31;101283.13;5059178;28;20465;-68
2022/02/02 02:21:56;;;;;;;35.60;4.57;;;;;;;6.84;88.80;101293.81;5064312;28;20702;-67
2022/02/02 02:24:22;;;;;;;58.03;6.05;;;;;;;6.77;89.30;101305.53;5063316;28;20467;-67
2022/02/02 02:26:49;;;;;;;41.25;6.13;;;;;;;6.80;89.54;101305.31;5047842;28;20033;-67
2022/02/02 02:32:05;;;;;;;40.25;5.40;;;;;;;6.81;88.84;101297.44;5058305;28;20104;-67
2022/02/02 02:37:38;;;;;;;49.60;6.82;;;;;;;6.83;88.77;101274.94;5043175;28;20094;-67
2022/02/02 02:56:15;;;;;;;51.40;6.50;;;;;;;6.71;88.15;101303.44;5040874;28;20036;-67
2022/02/02 02:58:49;;;;;;;52.53;7.35;;;;;;;6.78;88.13;101326.03;5062205;28;20089;-67
2022/02/02 03:01:27;;;;;;;48.80;6.13;;;;;;;6.79;87.99;101330.25;5061196;28;20062;-67
2022/02/02 04:00:44;;;;;;;51.72;8.48;;;;;;;6.49;87.69;101301.69;5062133;28;20414;-67
2022/02/02 04:03:41;;;;;;;41.60;6.35;;;;;;;6.40;87.57;101303.19;5044156;28;20056;-67
2022/02/02 04:06:10;;;;;;;60.88;13.82;;;;;;;6.48;87.26;101324.06;5029981;28;20433;-67
2022/02/02 04:08:38;;;;;;;47.78;6.80;;;;;;;6.55;86.75;101324.41;5059887;28;20033;-67
2022/02/02 04:11:14;;;;;;;61.70;12.48;;;;;;;6.48;87.64;101318.06;5058412;28;20035;-67
2022/02/02 04:55:02;;;;;;;43.90;5.72;;;;;;;6.37;87.75;101355.78;4996386;28;20506;-67
2022/02/02 05:08:53;;;;;;;48.20;5.05;;;;;;;6.38;88.52;101370.28;5006456;28;20038;-67
2022/02/02 05:16:52;;;;;;;46.78;6.43;;;;;;;6.28;89.18;101369.34;5062035;28;20670;-67
2022/02/02 05:44:13;;;;;;;36.60;5.65;;;;;;;6.12;90.65;101399.72;5022746;28;20153;-67
2022/02/02 05:51:50;;;;;;;50.15;6.97;;;;;;;6.24;90.64;101409.94;5063060;28;20020;-67
2022/02/02 05:54:19;;;;;;;39.72;6.13;;;;;;;6.18;90.45;101410.41;5040125;28;20079;-67
2022/02/02 05:56:50;;;;;;;35.58;4.72;;;;;;;6.08;91.13;101418.91;5045579;28;20058;-67
2022/02/02 05:59:19;;;;;;;42.90;6.22;;;;;;;6.22;90.96;101440.16;5028548;28;20036;-67
2022/02/02 06:01:54;;;;;;;43.30;5.50;;;;;;;6.22;91.20;101440.16;5063321;28;20119;-67
2022/02/02 06:04:23;;;;;;;48.95;6.43;;;;;;;6.19;91.06;101435.22;5046191;28;20384;-67
2022/02/02 06:06:50;;;;;;;44.92;7.18;;;;;;;6.12;91.30;101436.63;5063192;28;20033;-67
2022/02/02 06:09:15;;;;;;;48.65;5.97;;;;;;;6.20;90.82;101433.47;5062937;28;20051;-67
2022/02/02 06:11:42;;;;;;;43.50;6.93;;;;;;;6.24;90.46;101440.84;5063904;28;20107;-67
2022/02/02 06:14:08;;;;;;;38.22;5.82;;;;;;;6.23;90.76;101453.84;5032225;28;20410;-67
2022/02/02 06:16:36;;;;;;;58.35;8.30;;;;;;;6.24;91.05;101460.66;5044384;28;20043;-67
2022/02/02 06:19:02;;;;;;;47.60;5.90;;;;;;;6.25;91.07;101451.97;5064809;28;20139;-67
2022/02/02 06:21:33;;;;;;;48.70;6.05;;;;;;;6.18;91.36;101443.06;5061536;28;20024;-66
2022/02/02 06:24:22;;;;;;;41.00;5.20;;;;;;;6.25;90.85;101454.53;5044456;28;20558;-67
2022/02/02 06:26:49;;;;;;;36.35;5.80;;;;;;;6.32;91.10;101452.38;5059911;28;20040;-67
2022/02/02 06:29:16;;;;;;;47.15;6.00;;;;;;;6.29;90.95;101458.56;5043697;28;20107;-67
2022/02/02 06:31:43;;;;;;;54.17;6.05;;;;;;;6.35;91.31;101457.31;5059860;28;20033;-67
2022/02/02 06:34:13;;;;;;;51.58;7.05;;;;;;;6.23;90.96;101457.25;5042186;28;20033;-67
2022/02/02 06:36:41;;;;;;;41.80;5.85;;;;;;;6.26;90.92;101466.50;5058495;28;20032;-67
2022/02/02 06:39:09;;;;;;;46.78;5.60;;;;;;;6.23;91.39;101471.88;5043003;28;20041;-67
2022/02/02 06:41:35;;;;;;;49.88;6.53;;;;;;;6.38;91.00;101457.06;5059843;28;20094;-66
2022/02/02 06:44:04;;;;;;;40.97;5.25;;;;;;;6.30;91.07;101456.81;5060135;28;20115;-67
2022/02/02 06:46:33;;;;;;;50.72;5.38;;;;;;;6.35;90.48;101465.84;5061611;28;20127;-67
2022/02/02 06:49:00;;;;;;;45.55;6.65;;;;;;;6.32;90.51;101470.38;5043436;28;20041;-67
2022/02/02 06:51:48;;;;;;;44.63;6.28;;;;;;;6.26;91.00;101487.13;5061606;28;20508;-67
2022/02/02 06:54:21;;;;;;;52.08;6.95;;;;;;;6.40;90.68;101492.09;5024024;28;20461;-67
2022/02/02 06:57:11;;;;;;;51.38;6.18;;;;;;;6.42;90.59;101489.38;5039118;28;20040;-67
2022/02/02 07:13:00;;;;;;;45.95;6.90;;;;;;;6.35;90.42;101503.66;5045298;28;20810;-68
2022/02/02 07:28:20;;;;;;;50.50;6.65;;;;;;;6.42;89.31;101526.28;5062558;28;20032;-67
2022/02/02 07:31:07;;;;;;;33.90;5.13;;;;;;;6.43;89.10;101520.19;5039618;28;20087;-68
2022/02/02 07:33:40;;;;;;;49.78;6.22;;;;;;;6.42;88.67;101534.03;5057349;28;20060;-67
2022/02/02 07:36:14;;;;;;;53.63;6.68;;;;;;;6.42;88.45;101538.34;5040225;28;20039;-67
2022/02/02 07:39:09;;;;;;;44.22;7.05;;;;;;;6.46;88.33;101542.34;5042639;28;20514;-67
2022/02/02 07:41:37;;;;;;;46.00;5.53;;;;;;;6.51;88.14;101540.25;5062628;28;20142;-67
2022/02/02 07:44:14;;;;;;;55.35;6.10;;;;;;;6.54;87.96;101539.22;5061523;28;20143;-67
2022/02/02 07:46:52;;;;;;;57.42;10.20;;;;;;;6.52;88.05;101546.25;5042046;28;20445;-67
2022/02/02 07:49:22;;;;;;;32.17;5.25;;;;;;;6.50;88.62;101528.31;5061658;28;20036;-67
2022/02/02 07:51:52;;;;;;;42.85;6.28;;;;;;;6.62;87.99;101548.03;5058369;28;20036;-67
2022/02/02 07:54:24;;;;;;;44.72;5.80;;;;;;;6.59;88.07;101550.84;5057731;28;20120;-67
2022/02/02 07:56:51;;;;;;;47.47;6.30;;;;;;;6.61;88.57;101561.84;5040849;28;20025;-67
2022/02/02 08:01:45;;;;;;;35.30;4.63;;;;;;;6.62;89.00;101557.50;5059994;28;20563;-67
2022/02/02 08:04:12;;;;;;;44.55;5.07;;;;;;;6.62;88.83;101565.25;5043765;28;20401;-67
2022/02/02 08:06:40;;;;;;;54.97;5.80;;;;;;;6.61;89.03;101567.00;5061148;28;20661;-66
2022/02/02 08:09:08;;;;;;;42.70;5.10;;;;;;;6.61;88.87;101563.59;5060441;28;20044;-67
2022/02/02 08:11:37;;;;;;;50.63;7.32;;;;;;;6.58;89.15;101569.81;5044765;28;20036;-67
2022/02/02 08:14:02;;;;;;;45.90;6.25;;;;;;;6.67;89.03;101576.06;5065544;28;20433;-67
2022/02/02 08:16:30;;;;;;;46.97;5.43;;;;;;;6.73;88.89;101577.38;5045649;28;20123;-67
2022/02/02 08:18:56;;;;;;;43.33;4.97;;;;;;;6.77;88.85;101576.19;5063481;28;20036;-67
2022/02/02 08:21:22;;;;;;;38.00;6.22;;;;;;;6.89;88.56;101590.75;5046267;28;20036;-67
2022/02/02 08:23:49;;;;;;;41.78;5.22;;;;;;;6.84;88.63;101592.88;5062961;28;20489;-67
2022/02/02 08:26:16;;;;;;;46.97;5.25;;;;;;;6.76;88.63;101590.00;5062273;28;20029;-67
2022/02/02 08:28:46;;;;;;;52.75;6.65;;;;;;;6.95;88.51;101608.38;5046733;28;20032;-67
2022/02/02 08:31:13;;;;;;;47.70;5.07;;;;;;;6.97;88.06;101598.75;5065598;28;20032;-67
2022/02/02 08:33:42;;;;;;;47.47;5.45;;;;;;;6.92;87.91;101602.63;5043173;28;20032;-67
2022/02/02 08:36:12;;;;;;;47.40;5.45;;;;;;;6.99;87.62;101601.25;5030243;28;20036;-67
2022/02/02 08:41:15;;;;;;;43.63;5.90;;;;;;;6.93;88.11;101609.41;5045881;28;20075;-66
2022/02/02 08:43:48;;;;;;;42.13;4.90;;;;;;;6.96;88.21;101622.91;5043838;28;20854;-67
2022/02/02 08:46:24;;;;;;;43.97;5.65;;;;;;;6.86;88.34;101623.69;5044817;28;20116;-67
2022/02/02 08:48:54;;;;;;;50.80;5.47;;;;;;;6.83;88.67;101628.13;5060797;28;20036;-67
2022/02/02 08:51:22;;;;;;;44.08;5.78;;;;;;;6.91;88.16;101635.31;5046412;28;20043;-67
2022/02/02 09:00:22;;;;;;;48.85;5.38;;;;;;;7.01;88.66;101640.63;5046644;28;20048;-67
2022/02/02 09:02:16;;;;;;;44.97;5.22;;;;;;;7.06;88.59;101648.00;5048158;28;20143;-67
2022/02/02 09:07:26;;;;;;;42.13;6.32;;;;;;;7.18;88.83;101657.44;5056907;28;20550;-68
2022/02/02 09:25:38;;;;;;;43.22;6.72;;;;;;;7.49;88.39;101674.03;5055620;28;20037;-67
2022/02/02 09:35:56;;;;;;;63.35;6.13;;;;;;;7.40;88.51;101656.66;5047723;28;20033;-66
2022/02/02 09:38:23;;;;;;;43.53;6.28;;;;;;;7.38;88.71;101659.38;5047687;28;20035;-67
2022/02/02 09:43:24;;;;;;;50.38;6.72;;;;;;;7.54;88.64;101658.22;5060096;28;20514;-67
2022/02/02 09:45:57;;;;;;;50.70;6.82;;;;;;;7.58;88.59;101665.63;5063238;28;20032;-67
2022/02/02 09:48:42;;;;;;;49.85;6.57;;;;;;;7.54;88.41;101661.63;5062930;28;20040;-68
2022/02/02 09:51:11;;;;;;;53.55;6.35;;;;;;;7.53;88.08;101664.31;5058484;28;20036;-67
2022/02/02 09:53:39;;;;;;;47.35;5.82;;;;;;;7.62;88.23;101673.13;5059885;28;20063;-67
2022/02/02 09:58:57;;;;;;;39.15;6.53;;;;;;;7.56;88.54;101677.81;5056101;28;20033;-67
2022/02/02 10:01:40;;;;;;;35.33;5.32;;;;;;;7.66;88.48;101684.88;5061073;28;20218;-67
2022/02/02 10:04:15;;;;;;;55.80;8.25;;;;;;;7.61;88.06;101685.22;5062040;28;20032;-67
2022/02/02 10:06:57;;;;;;;47.10;6.53;;;;;;;7.65;87.95;101699.53;5057038;28;20036;-67
2022/02/02 10:09:47;;;;;;;49.00;7.90;;;;;;;7.68;87.79;101699.28;5033383;28;20123;-67
2022/02/02 10:15:17;;;;;;;40.45;7.35;;;;;;;7.67;87.86;101704.59;5038908;28;20128;-67
2022/02/02 10:17:45;;;;;;;48.67;6.88;;;;;;;7.80;88.02;101719.03;5043761;28;20053;-67
2022/02/02 10:20:22;;;;;;;57.78;6.85;;;;;;;7.75;88.10;101722.91;5039728;28;20144;-67
2022/02/02 10:22:50;;;;;;;53.35;7.53;;;;;;;7.71;87.96;101719.72;5059854;28;20210;-67
2022/02/02 10:25:47;;;;;;;55.85;6.93;;;;;;;7.71;87.52;101731.81;5034467;28;20135;-67
2022/02/02 10:28:15;;;;;;;51.80;8.75;;;;;;;7.72;87.47;101731.72;5037085;28;20126;-67
2022/02/02 10:30:50;;;;;;;49.22;7.43;;;;;;;7.81;87.12;101732.78;5044578;28;20033;-68
2022/02/02 10:33:29;;;;;;;58.63;7.53;;;;;;;7.87;86.94;101736.66;5043558;28;20044;-67
2022/02/02 10:36:08;;;;;;;47.78;7.15;;;;;;;7.95;87.07;101729.16;5041262;28;20042;-67
2022/02/02 10:38:55;;;;;;;48.00;7.43;;;;;;;7.95;86.61;101729.16;5059803;28;20068;-67
2022/02/02 10:41:31;;;;;;;41.90;6.38;;;;;;;8.15;85.98;101732.78;5040178;28;20091;-67
2022/02/02 10:44:02;;;;;;;63.28;7.57;;;;;;;8.27;85.46;101737.03;5056716;28;20025;-67
2022/02/02 10:49:21;;;;;;;39.88;5.57;;;;;;;8.27;83.88;101729.28;5040895;28;20036;-68
2022/02/02 10:52:07;;;;;;;46.28;8.18;;;;;;;8.32;83.81;101734.91;5038347;28;20029;-67
2022/02/02 10:54:52;;;;;;;47.17;6.55;;;;;;;8.30;83.11;101743.72;5054005;28;20500;-67
2022/02/02 10:57:48;;;;;;;59.47;8.48;;;;;;;8.26;82.41;101740.56;5041507;28;20120;-67
2022/02/02 11:00:30;;;;;;;41.47;6.95;;;;;;;8.19;82.83;101741.94;5038223;28;20060;-67
2022/02/02 11:08:27;;;;;;;42.35;5.65;;;;;;;8.39;82.53;101754.16;5051871;28;20082;-67
2022/02/02 11:10:57;;;;;;;49.65;6.28;;;;;;;8.35;81.35;101739.84;5063620;28;20094;-68
2022/02/02 11:13:24;;;;;;;50.38;6.70;;;;;;;8.47;81.16;101745.84;5042846;28;20103;-67
2022/02/02 11:15:54;;;;;;;61.17;7.28;;;;;;;8.42;80.83;101745.41;5058957;28;20083;-68
2022/02/02 11:18:24;;;;;;;36.53;6.30;;;;;;;8.48;80.79;101746.69;5056908;28;20903;-67
2022/02/02 11:20:52;;;;;;;45.55;5.72;;;;;;;8.49;80.15;101743.97;5037896;28;20059;-67
2022/02/02 11:23:19;;;;;;;51.67;6.35;;;;;;;8.49;80.13;101740.56;5037698;28;20456;-67
2022/02/02 11:25:59;;;;;;;37.95;5.25;;;;;;;8.58;79.39;101740.66;5027265;28;20028;-67
2022/02/02 11:28:36;;;;;;;49.05;5.75;;;;;;;8.54;78.51;101749.59;5053786;28;20115;-67
2022/02/02 11:31:07;;;;;;;55.20;6.90;;;;;;;8.52;78.70;101743.75;5059113;28;20037;-67
2022/02/02 11:33:55;;;;;;;48.83;5.93;;;;;;;8.61;79.85;101739.63;5039522;28;20051;-67
2022/02/02 11:36:26;;;;;;;41.88;6.47;;;;;;;8.55;78.76;101740.09;5056291;28;20032;-67
2022/02/02 11:38:55;;;;;;;39.70;6.32;;;;;;;8.66;78.59;101739.25;5039878;28;20028;-67
2022/02/02 11:44:01;;;;;;;40.50;5.38;;;;;;;8.72;78.43;101731.00;5056133;28;20099;-67
2022/02/02 11:46:45;;;;;;;39.13;5.20;;;;;;;8.84;78.22;101737.00;5054623;28;20067;-67
2022/02/02 11:49:46;;;;;;;47.05;6.13;;;;;;;8.82;77.84;101741.47;5040304;28;20041;-67
2022/02/02 11:52:51;;;;;;;48.47;5.75;;;;;;;8.91;77.75;101744.13;5042633;28;20058;-67
2022/02/02 11:55:16;;;;;;;50.47;5.57;;;;;;;8.98;77.37;101739.28;5001119;28;20402;-67
2022/02/02 11:57:53;;;;;;;46.47;6.80;;;;;;;8.98;76.71;101738.47;5062001;28;20031;-67
2022/02/02 12:00:30;;;;;;;39.30;5.15;;;;;;;9.00;77.24;101737.41;5061895;28;20029;-67
2022/02/02 12:03:35;;;;;;;46.85;5.70;;;;;;;8.92;77.03;101744.94;5040267;28;20689;-68
2022/02/02 12:47:50;;;;;;;35.22;3.88;;;;;;;9.13;72.77;101721.72;5041263;28;20854;-67
2022/02/02 12:50:03;;;;;;;34.25;4.60;;;;;;;9.09;73.89;101730.66;5055742;28;20144;-67
2022/02/02 12:57:58;;;;;;;41.72;5.47;;;;;;;8.99;73.09;101750.47;4998859;28;20506;-65
2022/02/02 13:03:08;;;;;;;33.17;4.13;;;;;;;9.01;73.12;101746.81;5016437;28;20037;-65
2022/02/02 13:05:41;;;;;;;42.15;4.68;;;;;;;9.02;73.81;101745.84;5032237;28;20043;-67
2022/02/02 13:08:07;;;;;;;27.65;4.43;;;;;;;8.98;73.19;101748.81;5025235;28;20061;-67
2022/02/02 13:10:35;;;;;;;27.70;3.97;;;;;;;8.94;73.32;101754.22;5030369;28;20194;-67
2022/02/02 13:13:15;;;;;;;30.48;3.83;;;;;;;8.86;72.90;101751.44;5043509;28;20071;-67
2022/02/02 13:15:55;;;;;;;33.85;3.95;;;;;;;8.82;71.88;101744.06;5011869;28;20049;-66
2022/02/02 13:23:27;;;;;;;22.92;3.33;;;;;;;8.70;71.37;101745.81;5051946;28;20056;-66
2022/02/02 13:26:01;;;;;;;35.63;3.78;;;;;;;8.54;72.76;101741.03;5021627;28;20036;-67
2022/02/02 13:28:50;;;;;;;35.03;3.58;;;;;;;8.49;72.43;101732.81;5032021;28;20044;-67
2022/02/02 13:31:40;;;;;;;26.55;3.33;;;;;;;8.54;71.99;101741.84;5035522;28;20033;-67
2022/02/02 13:37:01;;;;;;;25.27;3.25;;;;;;;8.52;72.60;101745.50;5052594;28;20108;-67
2022/02/02 14:09:53;;;;;;;28.08;3.70;;;;;;;8.79;72.88;101754.63;5049373;28;20036;-66
2022/02/02 14:31:06;;;;;;;20.70;3.25;;;;;;;8.98;72.51;101782.44;5054148;28;20029;-66
2022/02/02 14:31:45;;;;;;;32.35;5.05;;;;;;;8.88;71.78;101795.28;5047503;28;20620;-67
2022/02/02 14:34:11;;;;;;;26.40;3.80;;;;;;;8.94;72.19;101802.56;5033460;28;20413;-66
2022/02/02 14:36:39;;;;;;;22.08;4.53;;;;;;;8.87;71.85;101798.81;5031929;28;20040;-66
2022/02/02 14:44:07;;;;;;;31.63;3.95;;;;;;;8.60;71.59;101818.13;5048694;28;20699;-67
2022/02/02 14:46:42;;;;;;;24.85;3.20;;;;;;;8.53;71.72;101819.53;5044734;28;20036;-67
2022/02/02 14:52:53;;;;;;;21.42;3.40;;;;;;;8.67;72.65;101824.47;5043382;28;20526;-66
2022/02/02 15:29:33;;;;;;;88.63;21.38;;;;;;;8.57;75.50;101833.88;5040938;28;20620;-68
2022/02/02 15:31:59;;;;;;;171.55;51.90;;;;;;;8.41;76.15;101828.19;5040942;28;20617;-68
2022/02/02 15:34:33;;;;;;;113.90;32.72;;;;;;;8.30;76.84;101832.41;5041434;28;20055;-66
2022/02/02 15:39:32;;;;;;;136.75;42.15;;;;;;;8.37;76.53;101828.41;5023139;28;20241;-66
2022/02/02 15:42:20;;;;;;;122.38;41.70;;;;;;;8.31;76.99;101828.06;5021187;28;20025;-66
2022/02/02 15:57:26;;;;;;;34.20;8.75;;;;;;;7.95;78.08;101838.47;5042216;28;20036;-67
2022/02/02 15:58:33;;;;;;;34.83;5.13;;;;;;;7.93;78.51;101837.75;5030299;28;20041;-67
2022/02/02 16:03:39;;;;;;;34.95;6.70;;;;;;;7.67;79.64;101844.00;5025388;28;20029;-67
2022/02/02 16:08:37;;;;;;;36.28;9.10;;;;;;;7.57;80.03;101842.09;5026077;28;20132;-67
2022/02/02 16:11:15;;;;;;;39.60;8.55;;;;;;;7.49;80.64;101844.38;5039709;28;20052;-66
2022/02/02 16:13:48;;;;;;;33.28;9.55;;;;;;;7.42;80.81;101848.31;5023040;28;20040;-66
2022/02/02 16:37:41;;;;;;;34.08;5.03;;;;;;;6.96;83.10;101849.00;5041654;28;20497;-66
2022/02/02 16:40:10;;;;;;;20.60;4.65;;;;;;;6.91;83.86;101848.50;5043036;28;20086;-67
2022/02/02 16:45:22;;;;;;;18.67;3.85;;;;;;;6.80;84.33;101837.19;5045220;28;20029;-67
2022/02/02 16:47:49;;;;;;;26.30;4.32;;;;;;;6.75;84.33;101836.66;5028905;28;20036;-67
2022/02/02 16:50:19;;;;;;;23.83;4.60;;;;;;;6.70;84.96;101833.56;5049333;28;20567;-67
2022/02/02 16:52:48;;;;;;;22.35;4.55;;;;;;;6.64;84.92;101834.00;5044639;28;20511;-67
2022/02/02 16:55:27;;;;;;;27.15;4.15;;;;;;;6.61;85.36;101836.78;5031265;28;20534;-67
2022/02/02 16:58:08;;;;;;;26.17;4.65;;;;;;;6.53;85.66;101841.63;5027720;28;20073;-67
2022/02/02 17:30:56;;;;;;;25.27;6.47;;;;;;;5.94;88.49;101865.25;5045825;28;20032;-67
2022/02/02 17:33:28;;;;;;;26.90;9.15;;;;;;;5.90;88.73;101859.50;5013826;28;20073;-67
2022/02/02 17:38:48;;;;;;;30.75;8.48;;;;;;;5.82;88.63;101867.72;5026151;28;20562;-67
2022/02/02 17:44:08;;;;;;;22.55;5.68;;;;;;;5.72;89.62;101876.94;5039413;28;20845;-66
2022/02/02 18:14:03;;;;;;;22.25;7.45;;;;;;;5.46;91.52;101876.84;5022628;28;20029;-66
2022/02/02 18:19:04;;;;;;;28.50;7.65;;;;;;;5.43;92.16;101886.50;5041889;28;20052;-66
2022/02/02 18:21:31;;;;;;;26.00;7.07;;;;;;;5.41;91.65;101894.31;5013969;28;20415;-67
2022/02/02 18:26:38;;;;;;;29.50;8.48;;;;;;;5.36;92.08;101895.50;5023082;28;20554;-67
2022/02/02 18:29:14;;;;;;;20.45;6.60;;;;;;;5.33;91.96;101903.41;5040644;28;20026;-66
2022/02/02 18:40:47;;;;;;;18.17;6.15;;;;;;;5.29;93.29;101918.19;5045024;28;20051;-66
2022/02/02 18:45:39;;;;;;;24.52;7.80;;;;;;;5.28;93.81;101916.56;5022635;28;20035;-67
2022/02/02 18:48:21;;;;;;;25.77;8.40;;;;;;;5.29;94.16;101907.09;5031066;28;20067;-67
2022/02/02 18:53:48;;;;;;;30.95;9.48;;;;;;;5.33;94.83;101911.97;5036461;28;20051;-66
2022/02/02 18:56:32;;;;;;;32.38;10.00;;;;;;;5.36;95.64;101918.66;5060349;23;20102;-69
2022/02/02 18:59:15;;;;;;;39.55;10.57;;;;;;;5.41;96.11;101919.22;5044445;28;20726;-68
2022/02/02 19:01:52;;;;;;;37.13;10.60;;;;;;;5.51;96.77;101922.03;5067650;28;20074;-70
2022/02/02 19:26:08;;;;;;;39.78;15.00;;;;;;;5.69;99.21;101907.19;5062412;28;20033;-69
2022/02/02 19:31:45;;;;;;;49.08;20.75;;;;;;;5.89;100.00;101890.47;5062482;28;20036;-69
2022/02/02 19:37:23;;;;;;;33.65;14.90;;;;;;;5.90;100.00;101890.38;5041561;28;20425;-68
2022/02/02 19:40:05;;;;;;;33.58;13.73;;;;;;;5.97;100.00;101889.09;5056658;28;20025;-69
2022/02/02 20:01:51;;;;;;;37.90;14.30;;;;;;;6.08;100.00;101898.69;5061366;28;20024;-69
2022/02/02 20:12:29;;;;;;;35.75;15.25;;;;;;;6.09;100.00;101900.34;5063110;28;20040;-69
2022/02/02 20:14:55;;;;;;;47.65;17.75;;;;;;;6.09;100.00;101902.91;5044525;28;20546;-69
2022/02/02 20:17:23;;;;;;;35.90;15.07;;;;;;;6.10;100.00;101906.31;5046089;28;20031;-69
2022/02/02 20:20:00;;;;;;;34.20;14.75;;;;;;;6.10;100.00;101908.88;5066381;28;20036;-69
2022/02/02 20:22:29;;;;;;;33.08;14.52;;;;;;;6.13;100.00;101898.41;5059628;28;20418;-69
2022/02/02 20:25:02;;;;;;;36.20;15.32;;;;;;;6.16;100.00;101903.31;5045200;28;20177;-68
2022/02/02 20:27:33;;;;;;;41.90;15.40;;;;;;;6.19;100.00;101898.81;5046321;28;20475;-69
2022/02/02 20:30:00;;;;;;;37.33;16.27;;;;;;;6.19;100.00;101903.94;5061907;28;20067;-69
2022/02/02 20:32:27;;;;;;;36.42;16.75;;;;;;;6.29;100.00;101903.34;5062990;28;20371;-69
2022/02/02 20:34:53;;;;;;;37.30;16.35;;;;;;;6.31;100.00;101899.78;5057588;28;20063;-68
2022/02/02 20:37:19;;;;;;;37.70;16.70;;;;;;;6.35;100.00;101905.56;5060090;28;20482;-69
2022/02/02 20:39:55;;;;;;;35.53;16.08;;;;;;;6.36;100.00;101896.88;5064083;28;20079;-68
2022/02/02 20:45:12;;;;;;;39.72;17.65;;;;;;;6.57;100.00;101898.03;5062885;28;20036;-69
2022/02/02 21:14:41;;;;;;;60.30;24.25;;;;;;;6.73;100.00;101915.88;5061090;28;20044;-68
2022/02/02 21:17:16;;;;;;;59.95;23.15;;;;;;;6.68;100.00;101910.19;5030773;28;20435;-69
2022/02/02 21:19:56;;;;;;;59.00;23.98;;;;;;;6.69;100.00;101914.44;5073572;28;20098;-68
2022/02/02 21:22:23;;;;;;;62.03;24.25;;;;;;;6.65;100.00;101906.97;5065241;28;20784;-68
2022/02/02 21:25:05;;;;;;;60.60;21.90;;;;;;;6.65;100.00;101910.41;5045927;28;20093;-69
2022/02/02 21:27:39;;;;;;;60.53;23.50;;;;;;;6.63;100.00;101913.09;5044915;28;20043;-69
2022/02/02 21:30:06;;;;;;;59.97;24.23;;;;;;;6.70;100.00;101921.22;5030640;28;20040;-69
2022/02/02 21:32:32;;;;;;;60.72;22.77;;;;;;;6.72;100.00;101909.03;5045612;28;20032;-69
2022/02/02 21:35:04;;;;;;;66.32;24.38;;;;;;;6.72;100.00;101909.03;5046041;28;20036;-69
2022/02/02 21:37:33;;;;;;;66.05;24.17;;;;;;;6.79;100.00;101904.31;5061842;28;20101;-69
2022/02/02 21:40:16;;;;;;;59.67;24.33;;;;;;;6.74;100.00;101904.63;5039807;28;20219;-68
2022/02/02 21:42:43;;;;;;;62.60;23.88;;;;;;;6.77;100.00;101906.97;5039799;28;20064;-68
2022/02/02 21:45:09;;;;;;;64.22;25.27;;;;;;;6.77;100.00;101917.31;5060936;28;20123;-69
2022/02/02 21:47:35;;;;;;;62.78;23.77;;;;;;;6.73;100.00;101910.72;5043461;28;20476;-69
2022/02/02 21:50:02;;;;;;;70.80;25.15;;;;;;;6.86;100.00;101913.28;5063406;28;20071;-68
2022/02/02 21:52:32;;;;;;;58.83;25.00;;;;;;;6.91;100.00;101918.13;5042427;28;20067;-69
2022/02/02 21:54:58;;;;;;;60.63;24.17;;;;;;;6.88;100.00;101913.19;5059640;28;20032;-69
2022/02/02 21:57:23;;;;;;;66.40;25.00;;;;;;;6.87;100.00;101906.38;5044664;28;20376;-69
2022/02/02 21:59:49;;;;;;;63.88;25.23;;;;;;;6.96;100.00;101908.31;5041049;28;20036;-69
2022/02/02 22:02:15;;;;;;;66.93;25.58;;;;;;;6.97;100.00;101907.41;5044056;28;20036;-69
2022/02/02 22:04:40;;;;;;;65.82;24.40;;;;;;;6.94;100.00;101912.75;5059861;28;20032;-70
2022/02/02 22:07:06;;;;;;;67.40;24.55;;;;;;;6.94;100.00;101920.50;5062953;28;20028;-69
2022/02/02 22:09:32;;;;;;;60.50;24.67;;;;;;;6.92;100.00;101924.94;5046723;28;20405;-69
2022/02/02 22:11:57;;;;;;;56.15;23.45;;;;;;;6.94;100.00;101917.91;5062838;28;20024;-70
2022/02/02 22:14:25;;;;;;;61.70;24.98;;;;;;;6.86;100.00;101922.78;5060979;28;20068;-69
2022/02/02 22:16:52;;;;;;;55.53;22.35;;;;;;;6.86;100.00;101921.03;5062971;28;20036;-69
2022/02/02 22:19:18;;;;;;;61.05;22.95;;;;;;;6.83;100.00;101922.03;5044480;28;20021;-70
2022/02/02 22:21:44;;;;;;;62.38;25.13;;;;;;;6.92;100.00;101912.03;5058952;28;20028;-69